Latest Weather Observations for Croker Island Airport

IDD60801

Issued at 5:01 pm CST Tuesday 1 September 2015 (issued every 30 minutes, with the page automatically refreshed every 10 minutes)

About weather observations | Map of weather stations | Latest weather observations for NT | Other Formats
Station Details ID: 014308 Name: CROKER ISLAND AIRPORT Lat: -11.16 Lon: 132.48 Height: 9.2 m
Data from the previous 72 hours. | See also: Recent months for locations in Northern Territory
Date/Time
CST
Temp
°C
App
Temp
°C
Dew
Point
Rel
Hum
%
Delta-T
°C
Wind Press
QNH
hPa
Press
MSL
hPa
Rain
since 9 am
mm
Dir
 
Spd
km/h
Gust
km/h
Spd
kts
Gust
kts
01/05:00pm 29.3 30.2 18.4 51 7.0 NNW 11 15 6 8 1011.6 1011.5 0.0
01/04:30pm 29.6 30.8 19.0 53 6.9 NNW 11 17 6 9 1011.5 1011.4 0.0
01/04:00pm 29.4 30.9 19.7 56 6.3 NW 11 17 6 9 1011.6 1011.5 0.0
01/03:30pm 29.8 31.5 20.1 56 6.4 NW 11 17 6 9 1011.8 1011.7 0.0
01/03:00pm 30.1 31.4 19.2 52 7.1 NW 11 15 6 8 1012.1 1012.0 0.0
01/02:30pm 30.1 31.8 20.1 55 6.6 WNW 11 15 6 8 1012.3 1012.2 0.0
01/02:00pm 30.2 31.9 20.2 55 6.6 WNW 11 17 6 9 1012.7 1012.6 0.0
01/01:30pm 30.4 32.0 20.0 53 6.8 WNW 11 17 6 9 1013.1 1013.0 0.0
01/01:00pm 29.6 31.3 20.2 57 6.2 WNW 11 13 6 7 1013.6 1013.5 0.0
01/12:30pm 29.6 31.4 19.6 55 6.5 WNW 9 15 5 8 1014.2 1014.1 0.0
01/12:00pm 29.0 30.8 19.6 57 6.1 W 9 11 5 6 1014.6 1014.5 0.0
01/11:30am 28.8 31.3 20.3 60 5.6 W 7 13 4 7 1015.0 1014.9 0.0
01/11:00am 28.4 30.9 20.2 61 5.4 WSW 7 11 4 6 1015.3 1015.2 0.0
01/10:30am 28.0 30.7 20.3 63 5.1 W 6 9 3 5 1015.6 1015.5 0.0
01/10:00am 27.9 30.7 20.5 64 4.9 SW 6 9 3 5 1015.7 1015.6 0.0
01/09:30am 26.6 29.4 20.4 69 4.1 SW 6 7 3 4 1015.7 1015.6 0.0
01/09:00am 26.2 29.2 20.8 72 3.6 SSW 6 6 3 3 1015.6 1015.5 0.0
01/08:30am 25.9 29.3 20.9 74 3.3 ESE 4 4 2 2 1015.4 1015.3 0.0
01/08:00am 25.4 29.7 21.1 77 2.8 CALM 0 0 0 0 1015.1 1015.0 0.0
01/07:30am 23.6 27.4 20.9 85 1.8 E 2 4 1 2 1014.7 1014.6 0.0
01/07:00am 22.4 25.5 19.4 83 1.9 SE 2 4 1 2 1014.3 1014.2 0.0
01/06:30am 24.1 27.0 21.0 83 2.0 SSW 7 9 4 5 1014.1 1014.0 0.0
01/06:00am 24.1 27.0 21.0 83 2.0 SSW 7 9 4 5 1013.9 1013.8 0.0
01/05:30am 24.2 27.2 21.3 84 1.9 SSW 7 11 4 6 1013.8 1013.7 0.0
01/05:00am 24.0 27.3 21.5 86 1.7 SSW 6 9 3 5 1013.7 1013.6 0.0
01/04:30am 24.4 27.9 22.1 87 1.5 SW 7 11 4 6 1013.7 1013.6 0.0
01/04:00am 24.3 27.9 22.0 87 1.5 W 6 9 3 5 1013.8 1013.7 0.0
01/03:30am 24.2 27.9 22.3 89 1.3 WSW 6 9 3 5 1013.8 1013.7 0.0
01/03:00am 24.1 28.0 22.5 91 1.1 WSW 6 7 3 4 1013.9 1013.8 0.0
01/02:30am 23.2 27.2 22.0 93 0.8 WNW 4 7 2 4 1014.0 1013.9 0.0
01/02:00am 22.3 26.2 21.1 93 0.8 NW 2 2 1 1 1014.1 1014.0 0.0
01/01:30am 21.5 25.1 19.8 90 1.1 CALM 0 2 0 1 1014.0 1013.9 0.0
01/01:00am 21.7 24.4 20.2 91 1.0 ENE 6 6 3 3 1014.1 1014.0 0.0
01/12:30am 21.8 24.4 20.1 90 1.1 E 6 7 3 4 1014.1 1014.0 0.0
01/12:00am 21.8 24.3 19.9 89 1.2 ENE 6 7 3 4 1014.1 1014.0 0.0
 
Date/Time
CST
Temp
°C
App
Temp
°C
Dew
Point
Rel
Hum
%
Delta-T
°C
Wind Press
QNH
hPa
Press
MSL
hPa
Rain
since 9 am
mm
Dir
 
Spd
km/h
Gust
km/h
Spd
kts
Gust
kts
31/11:30pm 22.0 24.2 19.7 87 1.5 E 7 9 4 5 1014.2 1014.1 0.0
31/11:00pm 22.1 24.8 19.5 85 1.7 ENE 4 6 2 3 1014.2 1014.1 0.0
31/10:30pm 22.7 25.4 19.5 82 2.0 E 4 7 2 4 1014.1 1014.0 0.0
31/10:00pm 23.4 26.6 19.8 80 2.3 NNE 2 4 1 2 1014.0 1013.9 0.0
31/09:30pm 24.3 27.7 21.0 82 2.2 NNW 4 6 2 3 1013.9 1013.8 0.0
31/09:00pm 24.7 27.6 20.6 78 2.7 N 6 7 3 4 1013.8 1013.7 0.0
31/08:30pm 25.1 28.0 20.6 76 2.9 N 6 7 3 4 1013.6 1013.5 0.0
31/08:00pm 25.4 28.1 20.2 73 3.4 N 6 7 3 4 1013.3 1013.2 0.0
31/07:30pm 25.8 28.7 21.0 75 3.2 N 7 9 4 5 1012.9 1012.8 0.0
31/07:00pm 26.7 28.5 18.8 62 5.1 NNE 7 9 4 5 1012.8 1012.7 0.0
31/06:30pm 27.8 28.5 16.1 49 7.2 NNE 7 11 4 6 1012.6 1012.5 0.0
31/06:00pm 29.0 29.7 16.2 46 7.9 NE 7 11 4 6 1012.4 1012.3 0.0
31/05:30pm 30.1 30.0 15.0 40 9.2 NE 9 13 5 7 1012.1 1012.0 0.0
31/05:00pm 30.8 29.1 13.6 35 10.3 NE 15 20 8 11 1012.1 1012.0 0.0
31/04:30pm 31.3 30.7 15.7 39 9.7 ENE 13 19 7 10 1012.0 1011.9 0.0
31/04:00pm 31.5 30.5 15.5 38 9.9 ENE 15 20 8 11 1012.1 1012.0 0.0
31/03:30pm 32.0 32.0 17.1 41 9.5 E 13 20 7 11 1012.3 1012.2 0.0
31/03:00pm 31.8 31.7 16.9 40 9.4 ENE 13 20 7 11 1012.6 1012.5 0.0
31/02:30pm 32.5 33.3 16.3 37 10.2 ESE 7 13 4 7 1012.9 1012.8 0.0
31/02:00pm 30.4 33.2 20.9 57 6.3 W 7 13 4 7 1013.2 1013.1 0.0
31/01:30pm 29.9 32.9 21.3 60 5.8 WSW 7 13 4 7 1013.6 1013.5 0.0
31/01:00pm 32.0 32.3 15.9 38 10.1 ENE 9 15 5 8 1014.1 1014.0 0.0
31/12:30pm 31.2 30.7 16.0 40 9.5 E 13 24 7 13 1014.4 1014.3 0.0
31/12:00pm 31.3 31.6 17.9 44 8.6 E 13 20 7 11 1014.8 1014.7 0.0
31/11:30am 29.1 32.3 21.3 62 5.2 NW 6 11 3 6 1015.2 1015.1 0.0
31/11:00am 28.0 31.4 22.0 70 4.0 SW 7 9 4 5 1015.7 1015.6 0.0
31/10:30am 28.0 31.5 22.2 70 3.9 WSW 7 9 4 5 1015.9 1015.8 0.0
31/10:00am 29.4 31.6 19.7 56 6.3 ENE 7 15 4 8 1016.0 1015.9 0.0
31/09:30am 26.8 30.5 22.2 76 3.1 WSW 6 9 3 5 1015.8 1015.7 0.0
31/09:00am 26.9 31.0 22.3 76 3.1 SE 4 7 2 4 1015.7 1015.6 0.0
31/08:30am 26.6 30.4 21.6 74 3.3 E 4 6 2 3 1015.7 1015.6 0.0
31/08:00am 25.5 30.6 22.6 84 2.0 CALM 0 2 0 1 1015.5 1015.4 0.0
31/07:30am 23.4 27.6 22.4 94 0.7 SE 4 6 2 3 1015.3 1015.2 0.0
31/07:00am 22.4 25.7 21.4 94 0.7 ESE 6 6 3 3 1015.1 1015.0 0.0
31/06:30am 22.2 26.5 21.2 94 0.7 CALM 0 0 0 0 1014.7 1014.6 0.0
31/06:00am 22.2 26.0 21.0 93 0.8 ESE 2 4 1 2 1014.3 1014.2 0.0
31/05:30am 22.5 26.9 21.3 93 0.8 CALM 0 0 0 0 1014.1 1014.0 0.0
31/05:00am 22.5 26.7 21.0 91 1.0 CALM 0 0 0 0 1014.1 1014.0 0.0
31/04:30am 22.5 26.4 20.4 88 1.4 CALM 0 2 0 1 1014.1 1014.0 0.0
31/04:00am 23.3 26.7 21.6 90 1.1 ENE 6 6 3 3 1014.2 1014.1 0.0
31/03:30am 23.3 27.7 21.4 89 1.2 CALM 0 0 0 0 1014.4 1014.3 0.0
31/03:00am 23.8 28.6 22.2 91 1.1 CALM 0 2 0 1 1014.7 1014.6 0.0
31/02:30am 23.6 27.4 22.4 93 0.8 SE 6 6 3 3 1014.9 1014.8 0.0
31/02:00am 22.5 25.9 21.0 91 1.0 ESE 4 6 2 3 1015.0 1014.9 0.0
31/01:30am 22.6 25.6 20.9 90 1.1 E 6 7 3 4 1015.0 1014.9 0.0
31/01:00am 22.9 26.1 21.2 90 1.1 ENE 6 6 3 3 1015.0 1014.9 0.0
31/12:30am 23.1 26.4 21.4 90 1.1 ENE 6 9 3 5 1015.1 1015.0 0.0
31/12:00am 23.4 26.8 21.7 90 1.1 NE 6 7 3 4 1015.1 1015.0 0.0
 
Date/Time
CST
Temp
°C
App
Temp
°C
Dew
Point
Rel
Hum
%
Delta-T
°C
Wind Press
QNH
hPa
Press
MSL
hPa
Rain
since 9 am
mm
Dir
 
Spd
km/h
Gust
km/h
Spd
kts
Gust
kts
30/11:30pm 22.8 26.4 21.3 91 1.0 ENE 4 4 2 2 1015.1 1015.0 0.0
30/11:00pm 22.6 26.6 20.5 88 1.4 CALM 0 2 0 1 1015.2 1015.1 0.0
30/10:30pm 22.9 26.2 19.9 83 1.9 NE 2 4 1 2 1015.1 1015.0 0.0
30/10:00pm 23.9 27.5 21.2 85 1.8 NE 4 6 2 3 1014.8 1014.7 0.0
30/09:30pm 24.2 27.4 21.3 84 1.9 NE 6 7 3 4 1014.5 1014.4 0.0
30/09:00pm 24.5 27.8 21.4 83 2.0 NE 6 7 3 4 1014.4 1014.3 0.0
30/08:30pm 24.6 28.2 21.3 82 2.2 NE 4 6 2 3 1014.2 1014.1 0.0
30/08:00pm 24.8 27.9 21.1 80 2.4 ENE 6 9 3 5 1013.8 1013.7 0.0
30/07:30pm 25.1 28.2 21.0 78 2.7 ENE 6 9 3 5 1013.5 1013.4 0.0
30/07:00pm 25.5 28.4 21.0 76 3.0 NE 7 13 4 7 1013.3 1013.2 0.0
30/06:30pm 26.3 29.1 20.8 71 3.6 NE 7 13 4 7 1013.0 1012.9 0.0
30/06:00pm 27.1 27.3 20.2 66 4.5 NE 19 28 10 15 1012.6 1012.5 0.0
30/05:30pm 27.9 28.1 20.2 63 5.1 NE 19 30 10 16 1012.3 1012.2 0.0
30/05:00pm 28.3 28.6 20.8 63 5.0 NE 20 30 11 16 1012.5 1012.4 0.0
30/04:30pm 28.9 29.7 20.6 61 5.5 NE 17 24 9 13 1012.7 1012.6 0.0
30/04:00pm 29.4 29.7 19.7 56 6.3 NE 17 26 9 14 1012.6 1012.5 0.0
30/03:30pm 30.0 30.6 19.4 53 6.9 ENE 15 20 8 11 1012.8 1012.7 0.0
30/03:00pm 29.2 29.0 19.8 57 6.2 ENE 20 28 11 15 1013.2 1013.1 0.0
30/02:30pm 29.8 29.6 19.8 55 6.6 ENE 20 35 11 19 1013.5 1013.4 0.0
30/02:00pm 29.6 29.2 19.3 54 6.7 E 20 33 11 18 1013.8 1013.7 0.0
30/01:30pm 30.8 29.6 18.5 47 7.9 ENE 22 33 12 18 1014.2 1014.1 0.0
30/01:00pm 30.4 28.2 16.0 41 9.0 E 22 33 12 18 1014.5 1014.4 0.0
30/12:30pm 31.0 29.8 17.0 43 8.8 ESE 19 28 10 15 1014.8 1014.7 0.0
30/12:00pm 31.1 30.0 17.4 44 8.7 ESE 19 30 10 16 1015.2 1015.1 0.0
30/11:30am 30.8 29.6 17.1 43 8.7 E 19 30 10 16 1015.7 1015.6 0.0
30/11:00am 30.3 30.6 18.7 50 7.5 ESE 15 22 8 12 1016.1 1016.0 0.0
30/10:30am 29.4 29.8 19.1 54 6.7 SE 15 24 8 13 1016.5 1016.4 0.0
30/10:00am 28.4 30.2 21.2 65 4.8 SE 13 20 7 11 1016.5 1016.4 0.0
30/09:30am 28.0 29.8 21.1 66 4.6 ESE 13 22 7 12 1016.4 1016.3 0.0
30/09:00am 27.6 29.7 20.9 67 4.4 ESE 11 20 6 11 1016.3 1016.2 0.0
30/08:30am 26.3 29.4 22.2 78 2.8 SE 9 15 5 8 1016.0 1015.9 0.0
30/08:00am 25.1 28.2 22.2 84 1.9 SSE 9 15 5 8 1015.7 1015.6 0.0
30/07:30am 25.2 28.0 21.5 80 2.5 E 9 13 5 7 1015.5 1015.4 0.0
30/07:00am 24.4 26.7 21.3 83 2.0 E 11 17 6 9 1015.0 1014.9 0.0
30/06:30am 24.2 27.0 21.5 85 1.8 E 9 13 5 7 1014.7 1014.6 0.0
30/06:00am 24.1 27.1 21.2 84 1.9 E 7 9 4 5 1014.6 1014.5 0.0
30/05:30am 24.3 26.7 21.6 85 1.8 E 11 15 6 8 1014.4 1014.3 0.0
30/05:00am 23.9 27.3 22.0 89 1.3 E 7 13 4 7 1014.3 1014.2 0.0
30/04:30am 23.0 26.5 21.8 93 0.8 SE 6 7 3 4 1014.2 1014.1 0.0
30/04:00am 22.5 26.1 21.3 93 0.8 ESE 4 6 2 3 1014.1 1014.0 0.0
30/03:30am 22.5 26.1 21.3 93 0.8 E 4 4 2 2 1014.0 1013.9 0.0
30/03:00am 22.4 26.0 21.2 93 0.8 E 4 6 2 3 1014.0 1013.9 0.0
30/02:30am 22.1 25.5 20.9 93 0.8 ESE 4 4 2 2 1014.2 1014.1 0.0
30/02:00am 21.4 24.1 19.5 89 1.2 ENE 4 4 2 2 1014.5 1014.4 0.0
30/01:30am 22.1 25.3 20.6 91 1.0 ENE 4 6 2 3 1014.7 1014.6 0.0
30/01:00am 22.6 25.7 21.1 91 1.0 ENE 6 6 3 3 1014.7 1014.6 0.0
30/12:30am 22.4 25.8 21.0 92 0.9 ENE 4 6 2 3 1014.8 1014.7 0.0
30/12:00am 21.9 24.9 20.0 89 1.2 NE 4 4 2 2 1014.9 1014.8 0.0
 
Date/Time
CST
Temp
°C
App
Temp
°C
Dew
Point
Rel
Hum
%
Delta-T
°C
Wind Press
QNH
hPa
Press
MSL
hPa
Rain
since 9 am
mm
Dir
 
Spd
km/h
Gust
km/h
Spd
kts
Gust
kts
29/11:30pm 22.3 25.5 20.4 89 1.2 NE 4 4 2 2 1014.9 1014.8 0.0
29/11:00pm 22.3 25.2 19.8 86 1.6 NE 4 4 2 2 1014.8 1014.7 0.0
29/10:30pm 23.0 26.4 20.1 84 1.9 NE 2 4 1 2 1014.8 1014.7 0.0
29/10:00pm 23.9 27.5 21.2 85 1.8 NE 4 7 2 4 1014.9 1014.8 0.0
29/09:30pm 24.1 27.4 21.4 85 1.8 NNE 6 7 3 4 1014.9 1014.8 0.0
29/09:00pm 24.1 27.8 21.4 85 1.8 NNE 4 9 2 5 1014.7 1014.6 0.0
29/08:30pm 24.1 27.5 21.0 83 2.0 NE 4 6 2 3 1014.6 1014.5 0.0
29/08:00pm 24.2 27.1 20.7 81 2.3 ENE 6 7 3 4 1014.4 1014.3 0.0
29/07:30pm 24.6 27.4 20.5 78 2.7 ENE 6 7 3 4 1014.1 1014.0 0.0
29/07:00pm 25.2 27.5 20.7 76 2.9 ENE 9 15 5 8 1013.8 1013.7 0.0
29/06:30pm 25.7 27.8 20.9 75 3.2 ENE 11 17 6 9 1013.7 1013.6 0.0
29/06:00pm 26.5 27.3 20.6 70 3.9 E 17 22 9 12 1013.6 1013.5 0.0
29/05:30pm 27.2 27.8 20.3 66 4.5 E 17 24 9 13 1013.4 1013.3 0.0

Other Formats:

Comma delimited format used in spreadsheet applications
http://www.bom.gov.au/fwo/IDD60801/IDD60801.94108.axf

JavaScript Object Notation format (JSON) in row-major order
http://www.bom.gov.au/fwo/IDD60801/IDD60801.94108.json